createdAt,value
2018-08-31T00:02:32.352Z,102311.08
2018-08-31T00:05:41.895Z,102309.38
2018-08-31T00:09:25.768Z,102307.13
2018-08-31T00:12:11.987Z,102309.34
2018-08-31T00:14:41.097Z,102301.10
2018-08-31T00:17:10.048Z,102304.05
2018-08-31T00:19:38.943Z,102303.18
2018-08-31T00:22:07.958Z,102303.32
2018-08-31T00:25:52.100Z,102296.63
2018-08-31T00:28:29.276Z,102294.41
2018-08-31T00:33:17.134Z,102291.71
2018-08-31T00:38:00.746Z,102294.45
2018-08-31T00:41:20.226Z,102297.16
2018-08-31T00:44:54.985Z,102300.16
2018-08-31T00:47:24.031Z,102302.31
2018-08-31T00:49:53.067Z,102301.52
2018-08-31T00:52:22.060Z,102305.02
2018-08-31T00:54:57.397Z,102307.89
2018-08-31T00:57:26.324Z,102302.83
2018-08-31T00:59:55.274Z,102304.11
2018-08-31T01:02:24.275Z,102302.76
2018-08-31T01:04:53.572Z,102305.29
2018-08-31T01:07:23.171Z,102307.38
2018-08-31T01:09:52.213Z,102303.66
2018-08-31T01:12:21.136Z,102299.75
2018-08-31T01:14:50.052Z,102304.77
2018-08-31T01:17:18.980Z,102303.88
2018-08-31T01:19:48.311Z,102305.16
2018-08-31T01:22:17.661Z,102305.53
2018-08-31T01:24:46.933Z,102304.59
2018-08-31T01:27:16.255Z,102311.00
2018-08-31T01:29:45.206Z,102301.84
2018-08-31T01:32:14.198Z,102301.84
2018-08-31T01:34:44.030Z,102299.49
2018-08-31T01:37:12.976Z,102308.05
2018-08-31T01:39:41.873Z,102302.09
2018-08-31T01:42:11.144Z,102303.69
2018-08-31T01:44:40.177Z,102301.48
2018-08-31T01:47:09.126Z,102302.41
2018-08-31T01:49:38.124Z,102297.44
2018-08-31T01:52:07.057Z,102299.09
2018-08-31T01:54:35.983Z,102297.80
2018-08-31T01:57:05.264Z,102298.14
2018-08-31T01:59:34.241Z,102291.77
2018-08-31T02:02:03.181Z,102297.04
2018-08-31T02:04:32.143Z,102291.22
2018-08-31T02:07:01.170Z,102293.54
2018-08-31T02:09:30.040Z,102287.41
2018-08-31T02:11:59.972Z,102298.05
2018-08-31T02:14:28.905Z,102290.22
2018-08-31T02:16:57.832Z,102292.81
2018-08-31T02:19:26.832Z,102294.23
2018-08-31T02:21:55.807Z,102290.98
2018-08-31T02:24:24.764Z,102283.67
2018-08-31T02:26:53.803Z,102285.75
2018-08-31T02:29:22.745Z,102287.59
2018-08-31T02:31:51.692Z,102284.47
2018-08-31T02:34:20.611Z,102285.20
2018-08-31T02:36:49.524Z,102290.60
2018-08-31T02:39:18.504Z,102289.31
2018-08-31T02:41:47.377Z,102288.88
2018-08-31T02:44:16.358Z,102289.15
2018-08-31T02:46:45.247Z,102285.64
2018-08-31T02:49:14.224Z,102289.31
2018-08-31T02:51:43.200Z,102285.20
2018-08-31T02:54:12.110Z,102281.95
2018-08-31T02:56:40.995Z,102287.03
2018-08-31T02:59:09.985Z,102289.20
2018-08-31T03:01:38.936Z,102277.41
2018-08-31T03:04:07.874Z,102274.88
2018-08-31T03:06:36.844Z,102278.75
2018-08-31T03:09:06.366Z,102277.23
2018-08-31T03:11:35.456Z,102273.01
2018-08-31T03:14:04.320Z,102269.27
2018-08-31T03:16:33.360Z,102271.23
2018-08-31T03:19:02.259Z,102276.02
2018-08-31T03:21:31.209Z,102271.34
2018-08-31T03:24:00.277Z,102266.88
2018-08-31T03:26:29.276Z,102268.71
2018-08-31T03:28:58.180Z,102266.14
2018-08-31T03:31:27.088Z,102275.81
2018-08-31T03:33:59.036Z,102269.20
2018-08-31T03:36:28.012Z,102277.69
2018-08-31T03:38:56.920Z,102272.77
2018-08-31T03:41:25.844Z,102275.28
2018-08-31T03:43:54.749Z,102270.20
2018-08-31T03:46:23.659Z,102265.94
2018-08-31T03:48:52.564Z,102277.37
2018-08-31T03:51:21.522Z,102271.65
2018-08-31T03:53:50.435Z,102271.30
2018-08-31T03:56:19.304Z,102271.65
2018-08-31T03:58:48.236Z,102271.34
2018-08-31T04:01:17.171Z,102269.30
2018-08-31T04:03:46.166Z,102272.94
2018-08-31T04:06:15.079Z,102275.19
2018-08-31T04:08:44.022Z,102274.98
2018-08-31T04:11:12.968Z,102271.76
2018-08-31T04:13:41.877Z,102278.30
2018-08-31T04:16:10.777Z,102271.89
2018-08-31T04:18:39.709Z,102275.46
2018-08-31T04:21:08.618Z,102276.33
2018-08-31T04:23:37.542Z,102279.52
2018-08-31T04:26:06.472Z,102282.03
2018-08-31T04:28:35.504Z,102281.00
2018-08-31T04:31:04.399Z,102283.82
2018-08-31T04:33:33.292Z,102286.95
2018-08-31T04:36:02.262Z,102281.23
2018-08-31T04:38:31.180Z,102282.22
2018-08-31T04:41:00.113Z,102284.19
2018-08-31T04:43:29.031Z,102280.20
2018-08-31T04:45:58.048Z,102280.31
2018-08-31T04:48:27.040Z,102281.84
2018-08-31T04:50:56.028Z,102282.59
2018-08-31T04:53:24.959Z,102288.59
2018-08-31T04:55:53.866Z,102285.72
2018-08-31T04:58:22.785Z,102283.02
2018-08-31T05:00:51.748Z,102275.59
2018-08-31T05:03:20.679Z,102286.50
2018-08-31T05:05:49.627Z,102284.23
2018-08-31T05:08:18.523Z,102288.00
2018-08-31T05:10:47.450Z,102293.69
2018-08-31T05:13:16.557Z,102294.02
2018-08-31T05:15:45.489Z,102296.70
2018-08-31T05:18:14.488Z,102296.38
2018-08-31T05:20:43.483Z,102297.41
2018-08-31T05:23:12.403Z,102299.14
2018-08-31T05:25:41.335Z,102298.68
2018-08-31T05:28:10.247Z,102308.04
2018-08-31T05:30:39.266Z,102304.63
2018-08-31T05:33:08.171Z,102306.22
2018-08-31T05:35:37.133Z,102300.15
2018-08-31T05:38:06.105Z,102303.13
2018-08-31T05:40:35.034Z,102305.28
2018-08-31T05:43:05.102Z,102301.98
2018-08-31T05:45:34.089Z,102306.94
2018-08-31T05:48:02.924Z,102308.42
2018-08-31T05:50:31.840Z,102307.75
2018-08-31T05:53:00.818Z,102304.86
2018-08-31T05:55:29.743Z,102310.58
2018-08-31T05:57:58.664Z,102313.27
2018-08-31T06:00:27.645Z,102314.23
2018-08-31T06:02:56.522Z,102311.13
2018-08-31T06:05:25.555Z,102314.84
2018-08-31T06:07:54.462Z,102314.23
2018-08-31T06:10:23.387Z,102316.45
2018-08-31T06:12:52.307Z,102320.69
2018-08-31T06:15:21.310Z,102319.03
2018-08-31T06:17:50.272Z,102322.05
2018-08-31T06:20:19.229Z,102324.00
2018-08-31T06:22:48.163Z,102326.50
2018-08-31T06:25:17.118Z,102330.73
2018-08-31T06:27:46.016Z,102335.45
2018-08-31T06:30:14.948Z,102335.42
2018-08-31T06:32:44.053Z,102342.91
2018-08-31T06:35:12.930Z,102337.58
2018-08-31T06:37:41.924Z,102332.90
2018-08-31T06:40:10.816Z,102335.16
2018-08-31T06:42:42.606Z,102340.34
2018-08-31T06:45:11.566Z,102342.70
2018-08-31T06:47:40.537Z,102345.36
2018-08-31T06:50:09.531Z,102343.22
2018-08-31T06:52:39.289Z,102346.16
2018-08-31T06:55:08.215Z,102348.07
2018-08-31T06:57:37.191Z,102339.45
2018-08-31T07:00:06.940Z,102335.56
2018-08-31T07:02:37.032Z,102344.23
2018-08-31T07:05:06.521Z,102345.37
2018-08-31T07:07:35.477Z,102346.73
2018-08-31T07:10:04.779Z,102349.12
2018-08-31T07:12:33.859Z,102348.83
2018-08-31T07:15:02.717Z,102348.45
2018-08-31T07:17:31.703Z,102341.39
2018-08-31T07:20:00.613Z,102346.75
2018-08-31T07:22:29.633Z,102354.61
2018-08-31T07:24:58.673Z,102355.59
2018-08-31T07:27:27.679Z,102356.20
2018-08-31T07:29:56.707Z,102358.19
2018-08-31T07:32:25.674Z,102350.20
2018-08-31T07:34:54.614Z,102354.63
2018-08-31T07:37:23.558Z,102353.48
2018-08-31T07:39:52.606Z,102354.58
2018-08-31T07:42:21.571Z,102353.61
2018-08-31T07:44:50.439Z,102354.84
2018-08-31T07:47:19.375Z,102357.19
2018-08-31T07:49:48.327Z,102356.61
2018-08-31T07:52:17.243Z,102364.14
2018-08-31T07:54:46.235Z,102363.45
2018-08-31T07:57:15.203Z,102363.30
2018-08-31T07:59:44.159Z,102367.38
2018-08-31T08:02:15.234Z,102359.63
2018-08-31T08:04:44.257Z,102360.47
2018-08-31T08:07:13.398Z,102365.50
2018-08-31T08:09:42.419Z,102368.48
2018-08-31T08:12:11.461Z,102368.77
2018-08-31T08:14:40.474Z,102370.94
2018-08-31T08:17:09.445Z,102377.72
2018-08-31T08:26:25.795Z,102379.86
2018-08-31T08:28:54.793Z,102382.03
2018-08-31T08:31:23.772Z,102381.66
2018-08-31T08:33:52.696Z,102371.56
2018-08-31T08:36:21.611Z,102381.09
2018-08-31T08:38:50.678Z,102377.62
2018-08-31T08:41:19.586Z,102376.28
2018-08-31T08:43:48.504Z,102384.88
2018-08-31T08:46:17.496Z,102383.51
2018-08-31T08:48:46.447Z,102385.97
2018-08-31T08:51:15.282Z,102387.82
2018-08-31T08:53:44.224Z,102387.61
2018-08-31T08:56:13.180Z,102387.99
2018-08-31T08:58:42.087Z,102388.18
2018-08-31T09:01:11.092Z,102381.12
2018-08-31T09:03:40.002Z,102383.77
2018-08-31T09:06:08.977Z,102384.88
2018-08-31T09:08:37.888Z,102383.06
2018-08-31T09:11:06.857Z,102387.26
2018-08-31T09:13:35.834Z,102384.69
2018-08-31T09:16:04.769Z,102395.55
2018-08-31T09:18:33.947Z,102393.89
2018-08-31T09:21:02.799Z,102386.38
2018-08-31T09:23:31.781Z,102390.34
2018-08-31T09:26:03.300Z,102392.84
2018-08-31T09:28:32.330Z,102388.42
2018-08-31T09:31:01.918Z,102388.14
2018-08-31T09:33:30.882Z,102384.16
2018-08-31T09:35:59.831Z,102389.49
2018-08-31T09:38:28.783Z,102380.75
2018-08-31T09:40:57.669Z,102390.92
2018-08-31T09:43:26.704Z,102388.59
2018-08-31T09:45:55.653Z,102388.52
2018-08-31T09:48:24.583Z,102384.87
2018-08-31T09:50:53.591Z,102387.03
2018-08-31T09:53:22.564Z,102387.37
2018-08-31T09:55:51.505Z,102381.88
2018-08-31T09:58:20.420Z,102374.83
2018-08-31T10:00:59.499Z,102381.73
2018-08-31T10:03:28.478Z,102383.52
2018-08-31T10:05:57.639Z,102376.95
2018-08-31T10:08:27.927Z,102375.96
2018-08-31T10:10:57.074Z,102381.51
2018-08-31T10:13:26.492Z,102378.52
2018-08-31T10:15:56.606Z,102373.69
2018-08-31T10:18:27.647Z,102377.95
2018-08-31T10:20:56.664Z,102376.03
2018-08-31T10:23:25.583Z,102373.84
2018-08-31T10:25:54.523Z,102380.66
2018-08-31T10:28:23.592Z,102377.55
2018-08-31T10:30:52.575Z,102375.18
2018-08-31T10:33:21.482Z,102374.12
2018-08-31T10:35:50.336Z,102371.53
2018-08-31T10:38:19.307Z,102376.44
2018-08-31T10:40:48.303Z,102372.91
2018-08-31T10:43:17.215Z,102380.09
2018-08-31T10:45:46.248Z,102378.67
2018-08-31T10:48:15.202Z,102369.48
2018-08-31T10:50:44.175Z,102368.74
2018-08-31T10:53:13.164Z,102373.82
2018-08-31T10:55:42.067Z,102369.23
2018-08-31T10:58:11.031Z,102368.13
2018-08-31T11:00:40.045Z,102360.23
2018-08-31T11:03:09.121Z,102368.09
2018-08-31T11:05:38.083Z,102367.31
2018-08-31T11:08:07.006Z,102367.17
2018-08-31T11:10:36.001Z,102364.41
2018-08-31T11:13:05.023Z,102362.81
2018-08-31T11:15:33.855Z,102359.59
2018-08-31T11:18:02.804Z,102361.27
2018-08-31T11:20:31.753Z,102364.06
2018-08-31T11:23:00.654Z,102358.42
2018-08-31T11:25:29.658Z,102354.38
2018-08-31T11:27:58.621Z,102354.63
2018-08-31T11:30:27.650Z,102358.28
2018-08-31T11:32:56.662Z,102354.83
2018-08-31T11:35:25.608Z,102355.62
2018-08-31T11:37:54.561Z,102348.55
2018-08-31T11:40:23.576Z,102357.12
2018-08-31T11:42:52.525Z,102362.34
2018-08-31T11:45:21.453Z,102358.75
2018-08-31T11:47:50.406Z,102353.92
2018-08-31T11:50:19.438Z,102350.30
2018-08-31T11:52:48.524Z,102354.33
2018-08-31T11:55:17.542Z,102343.00
2018-08-31T11:57:46.566Z,102341.92
2018-08-31T12:00:16.528Z,102340.25
2018-08-31T12:02:45.448Z,102333.02
2018-08-31T12:05:14.368Z,102340.33
2018-08-31T12:07:43.343Z,102338.20
2018-08-31T12:10:12.289Z,102330.05
2018-08-31T12:12:41.244Z,102338.22
2018-08-31T12:15:10.412Z,102331.35
2018-08-31T12:17:39.460Z,102331.76
2018-08-31T12:20:08.622Z,102330.20
2018-08-31T12:22:37.584Z,102330.97
2018-08-31T12:25:07.161Z,102328.67
2018-08-31T12:27:36.088Z,102335.45
2018-08-31T12:30:05.121Z,102330.45
2018-08-31T12:32:34.024Z,102335.59
2018-08-31T12:35:02.912Z,102335.83
2018-08-31T12:37:31.862Z,102335.28
2018-08-31T12:40:00.818Z,102330.60
2018-08-31T12:42:30.112Z,102337.67
2018-08-31T12:44:59.139Z,102333.69
2018-08-31T12:47:28.100Z,102335.27
2018-08-31T12:49:57.248Z,102323.20
2018-08-31T12:52:26.206Z,102326.40
2018-08-31T12:54:55.282Z,102329.28
2018-08-31T12:57:24.362Z,102329.28
2018-08-31T13:00:00.616Z,102335.69
2018-08-31T13:02:31.355Z,102330.05
2018-08-31T13:05:00.984Z,102323.58
2018-08-31T13:07:29.901Z,102321.32
2018-08-31T13:09:58.841Z,102319.01
2018-08-31T13:12:27.832Z,102319.61
2018-08-31T13:14:56.946Z,102320.38
2018-08-31T13:17:25.883Z,102322.11
2018-08-31T13:19:54.838Z,102317.47
2018-08-31T13:22:23.860Z,102317.81
2018-08-31T13:24:52.811Z,102305.95
2018-08-31T13:27:21.971Z,102307.95
2018-08-31T13:29:50.903Z,102308.80
2018-08-31T13:32:19.828Z,102313.16
2018-08-31T13:34:48.889Z,102309.02
2018-08-31T13:37:17.880Z,102311.27
2018-08-31T13:39:46.805Z,102310.56
2018-08-31T13:42:15.768Z,102311.14
2018-08-31T13:44:44.679Z,102305.67
2018-08-31T13:47:13.607Z,102305.84
2018-08-31T13:49:42.651Z,102302.36
2018-08-31T13:52:11.548Z,102311.34
2018-08-31T13:54:40.528Z,102309.16
2018-08-31T13:57:09.473Z,102315.34
2018-08-31T13:59:38.394Z,102309.65
2018-08-31T14:02:07.427Z,102305.61
2018-08-31T14:04:36.364Z,102318.50
2018-08-31T14:07:05.351Z,102315.13
2018-08-31T14:09:34.265Z,102319.22
2018-08-31T14:12:03.255Z,102316.61
2018-08-31T14:14:32.149Z,102316.86
2018-08-31T14:17:01.263Z,102317.44
2018-08-31T14:19:30.436Z,102323.34
2018-08-31T14:21:59.353Z,102319.09
2018-08-31T14:24:28.447Z,102316.70
2018-08-31T14:26:57.342Z,102317.16
2018-08-31T14:29:26.393Z,102313.30
2018-08-31T14:31:55.284Z,102320.27
2018-08-31T14:34:24.193Z,102316.00
2018-08-31T14:36:53.090Z,102313.00
2018-08-31T14:39:22.562Z,102315.84
2018-08-31T14:41:51.554Z,102317.08
2018-08-31T14:44:21.736Z,102314.25
2018-08-31T14:46:50.732Z,102314.36
2018-08-31T14:49:19.772Z,102319.30
2018-08-31T14:51:48.666Z,102321.44
2018-08-31T14:54:17.704Z,102317.92
2018-08-31T14:56:46.886Z,102320.27
2018-08-31T14:59:15.947Z,102316.47
2018-08-31T15:01:44.868Z,102316.88
2018-08-31T15:04:13.811Z,102318.52
2018-08-31T15:06:42.740Z,102322.59
2018-08-31T15:09:12.538Z,102321.80
2018-08-31T15:11:41.521Z,102320.65
2018-08-31T15:14:10.455Z,102316.86
2018-08-31T15:16:39.412Z,102313.05
2018-08-31T15:19:08.397Z,102314.56
2018-08-31T15:21:37.260Z,102318.13
2018-08-31T15:24:06.270Z,102316.88
2018-08-31T15:26:35.219Z,102319.19
2018-08-31T15:29:07.088Z,102314.53
2018-08-31T15:31:36.113Z,102311.81
2018-08-31T15:34:04.908Z,102306.81
2018-08-31T15:36:33.821Z,102313.80
2018-08-31T15:39:02.767Z,102313.52
2018-08-31T15:41:31.753Z,102312.05
2018-08-31T15:44:00.795Z,102314.55
2018-08-31T15:46:29.722Z,102308.94
2018-08-31T15:48:58.692Z,102307.97
2018-08-31T15:51:27.580Z,102307.60
2018-08-31T15:53:58.059Z,102302.81
2018-08-31T15:56:28.092Z,102304.84
2018-08-31T15:58:57.115Z,102309.73
2018-08-31T16:01:26.073Z,102314.85
2018-08-31T16:03:54.982Z,102313.41
2018-08-31T16:06:23.908Z,102317.57
2018-08-31T16:08:53.067Z,102312.72
2018-08-31T16:11:22.035Z,102324.47
2018-08-31T16:13:51.645Z,102308.64
2018-08-31T16:16:20.568Z,102317.84
2018-08-31T16:18:49.599Z,102326.10
2018-08-31T16:21:18.492Z,102326.50
2018-08-31T16:23:47.574Z,102329.56
2018-08-31T16:26:16.496Z,102317.48
2018-08-31T16:28:45.537Z,102327.64
2018-08-31T16:31:14.519Z,102327.28
2018-08-31T16:33:43.436Z,102326.52
2018-08-31T16:36:12.432Z,102322.44
2018-08-31T16:38:41.467Z,102321.36
2018-08-31T16:41:10.429Z,102334.84
2018-08-31T16:43:39.389Z,102333.38
2018-08-31T16:46:08.405Z,102333.08
2018-08-31T16:48:37.276Z,102330.38
2018-08-31T16:51:07.751Z,102334.45
2018-08-31T16:53:36.623Z,102340.36
2018-08-31T16:56:06.645Z,102339.97
2018-08-31T16:58:35.537Z,102335.34
2018-08-31T17:01:04.443Z,102347.55
2018-08-31T17:03:33.389Z,102343.38
2018-08-31T17:06:02.338Z,102354.69
2018-08-31T17:08:31.425Z,102348.78
2018-08-31T17:11:00.455Z,102353.61
2018-08-31T17:13:29.381Z,102355.06
2018-08-31T17:15:58.352Z,102349.63
2018-08-31T17:18:27.297Z,102347.80
2018-08-31T17:20:56.253Z,102348.85
2018-08-31T17:23:25.188Z,102353.17
2018-08-31T17:25:54.168Z,102357.41
2018-08-31T17:28:29.201Z,102359.75
2018-08-31T17:31:03.414Z,102364.58
2018-08-31T17:33:37.669Z,102361.87
2018-08-31T17:36:11.887Z,102365.36
2018-08-31T17:38:40.829Z,102361.61
2018-08-31T17:41:09.705Z,102364.94
2018-08-31T17:43:39.659Z,102364.41
2018-08-31T17:46:08.712Z,102375.22
2018-08-31T17:48:37.699Z,102369.42
2018-08-31T17:51:06.721Z,102376.61
2018-08-31T17:53:35.669Z,102374.14
2018-08-31T17:56:04.752Z,102377.14
2018-08-31T17:58:33.611Z,102387.08
2018-08-31T18:01:03.361Z,102384.90
2018-08-31T18:03:32.276Z,102383.57
2018-08-31T18:06:01.207Z,102382.37
2018-08-31T18:08:30.242Z,102383.36
2018-08-31T18:11:04.604Z,102387.75
2018-08-31T18:13:34.575Z,102391.81
2018-08-31T18:16:15.160Z,102385.57
2018-08-31T18:18:44.025Z,102387.28
2018-08-31T18:21:12.912Z,102393.34
2018-08-31T18:23:41.802Z,102401.06
2018-08-31T18:26:10.720Z,102401.40
2018-08-31T18:28:40.370Z,102405.24
2018-08-31T18:31:09.340Z,102404.47
2018-08-31T18:33:38.260Z,102404.99
2018-08-31T18:36:07.252Z,102402.20
2018-08-31T18:38:36.213Z,102399.52
2018-08-31T18:41:05.203Z,102402.83
2018-08-31T18:43:34.155Z,102410.89
2018-08-31T18:46:03.079Z,102408.97
2018-08-31T18:48:32.052Z,102401.55
2018-08-31T18:51:01.088Z,102403.55
2018-08-31T18:53:29.978Z,102412.33
2018-08-31T18:55:58.892Z,102409.47
2018-08-31T18:58:27.973Z,102410.97
2018-08-31T19:00:56.953Z,102413.94
2018-08-31T19:03:25.865Z,102411.38
2018-08-31T19:05:54.940Z,102406.34
2018-08-31T19:08:23.910Z,102414.24
2018-08-31T19:10:52.857Z,102415.90
2018-08-31T19:13:22.080Z,102428.57
2018-08-31T19:15:51.102Z,102422.06
2018-08-31T19:18:20.135Z,102429.28
2018-08-31T19:20:49.030Z,102426.61
2018-08-31T19:23:18.047Z,102417.92
2018-08-31T19:25:46.945Z,102417.73
2018-08-31T19:28:16.104Z,102425.48
2018-08-31T19:30:45.592Z,102434.17
2018-08-31T19:33:14.545Z,102438.94
2018-08-31T19:35:43.497Z,102435.44
2018-08-31T19:38:12.407Z,102440.84
2018-08-31T19:40:41.462Z,102435.82
2018-08-31T19:43:10.344Z,102442.69
2018-08-31T19:45:39.286Z,102445.30
2018-08-31T19:48:08.259Z,102441.57
2018-08-31T19:50:38.296Z,102452.22
2018-08-31T19:53:07.240Z,102456.69
2018-08-31T19:55:36.574Z,102451.28
2018-08-31T19:58:06.064Z,102450.77
2018-08-31T20:00:35.124Z,102459.38
2018-08-31T20:03:04.134Z,102457.00
2018-08-31T20:05:33.413Z,102459.14
2018-08-31T20:08:02.313Z,102461.13
2018-08-31T20:10:31.272Z,102460.27
2018-08-31T20:13:00.220Z,102461.13
2018-08-31T20:15:29.096Z,102458.60
2018-08-31T20:17:58.030Z,102462.39
2018-08-31T20:20:26.976Z,102459.69
2018-08-31T20:22:56.295Z,102460.52
2018-08-31T20:25:25.238Z,102462.01
2018-08-31T20:27:54.289Z,102462.01
2018-08-31T20:30:23.271Z,102469.72
2018-08-31T20:32:52.200Z,102464.97
2018-08-31T20:35:21.247Z,102468.58
2018-08-31T20:37:50.223Z,102469.59
2018-08-31T20:40:19.305Z,102468.13
2018-08-31T20:42:48.275Z,102464.73
2018-08-31T20:45:17.196Z,102470.38
2018-08-31T20:47:46.145Z,102462.44
2018-08-31T20:50:15.099Z,102461.59
2018-08-31T20:52:44.050Z,102459.69
2018-08-31T20:55:13.043Z,102461.22
2018-08-31T20:57:42.147Z,102458.44
2018-08-31T21:00:11.120Z,102463.67
2018-08-31T21:02:40.111Z,102462.39
2018-08-31T21:05:09.114Z,102463.11
2018-08-31T21:07:38.072Z,102468.08
2018-08-31T21:10:07.071Z,102469.34
2018-08-31T21:12:36.024Z,102470.94
2018-08-31T21:15:05.039Z,102474.62
2018-08-31T21:17:34.024Z,102468.55
2018-08-31T21:20:03.127Z,102471.98
2018-08-31T21:22:32.092Z,102477.46
2018-08-31T21:25:01.126Z,102473.30
2018-08-31T21:27:30.102Z,102474.90
2018-08-31T21:29:59.056Z,102490.27
2018-08-31T21:32:27.948Z,102483.36
2018-08-31T21:34:57.076Z,102480.80
2018-08-31T21:37:26.122Z,102485.83
2018-08-31T21:39:55.071Z,102481.42
2018-08-31T21:42:24.084Z,102484.99
2018-08-31T21:44:53.018Z,102488.05
2018-08-31T21:47:22.096Z,102482.63
2018-08-31T21:49:51.107Z,102480.97
2018-08-31T21:52:20.218Z,102484.92
2018-08-31T21:54:49.260Z,102488.84
2018-08-31T21:57:18.290Z,102493.21
2018-08-31T21:59:47.321Z,102484.69
2018-08-31T22:02:16.303Z,102486.03
2018-08-31T22:04:45.486Z,102488.19
2018-08-31T22:07:14.372Z,102490.75
2018-08-31T22:09:43.331Z,102496.61
2018-08-31T22:12:12.264Z,102491.06
2018-08-31T22:14:41.259Z,102488.64
2018-08-31T22:17:10.162Z,102493.49
2018-08-31T22:19:39.073Z,102496.06
2018-08-31T22:22:08.112Z,102496.47
2018-08-31T22:24:37.071Z,102498.77
2018-08-31T22:27:05.988Z,102503.13
2018-08-31T22:29:34.936Z,102505.04
2018-08-31T22:32:03.983Z,102499.34
2018-08-31T22:34:33.008Z,102503.02
2018-08-31T22:37:01.933Z,102506.53
2018-08-31T22:39:30.900Z,102503.83
2018-08-31T22:41:59.983Z,102498.28
2018-08-31T22:44:28.959Z,102498.17
2018-08-31T22:46:57.933Z,102495.28
2018-08-31T22:49:26.881Z,102502.05
2018-08-31T22:51:55.815Z,102497.09
2018-08-31T22:54:24.768Z,102493.72
2018-08-31T22:56:53.699Z,102494.80
2018-08-31T22:59:22.643Z,102493.27
2018-08-31T23:01:51.539Z,102490.15
2018-08-31T23:04:20.415Z,102499.55
2018-08-31T23:06:54.770Z,102497.39
2018-08-31T23:09:25.560Z,102496.42
2018-08-31T23:11:54.577Z,102499.86
2018-08-31T23:14:23.460Z,102502.56
2018-08-31T23:16:52.348Z,102496.84
2018-08-31T23:19:21.244Z,102496.70
2018-08-31T23:21:50.105Z,102497.77
2018-08-31T23:24:19.235Z,102495.75
2018-08-31T23:26:48.159Z,102492.44
2018-08-31T23:29:17.080Z,102492.72
2018-08-31T23:31:45.968Z,102485.25
2018-08-31T23:34:14.880Z,102489.66
2018-08-31T23:36:43.779Z,102491.88
2018-08-31T23:39:12.714Z,102488.50
2018-08-31T23:41:41.666Z,102490.95
2018-08-31T23:44:10.577Z,102489.47
2018-08-31T23:46:39.566Z,102492.29
2018-08-31T23:49:08.490Z,102489.97
2018-08-31T23:51:37.529Z,102492.13
2018-08-31T23:54:06.483Z,102492.29
2018-08-31T23:56:35.452Z,102491.45
2018-08-31T23:59:04.375Z,102485.48
